Terminal Aerodrome Forecast
Issued by NWS

Home | Current Version | Previous Version | Text Only | Print | Product List | Glossary On
Versions: 1 2 3 4 5 6 7 8 9 10 11 12 13 14 15 16
000
FTUS42 KGSP 290535
TAFAND
TAF
KAND 290535Z 2906/3006 06004KT P6SM SCT250
     FM291400 06007KT P6SM SCT040 SCT250
     FM292000 07008KT P6SM SCT250
     FM300000 06004KT P6SM FEW140=

USA.gov is the U.S. government's official web portal to all federal, state and local government web resources and services.